createdAt,value
2018-09-26T00:00:40.668Z,6.00
2018-09-26T00:03:18.309Z,6.00
2018-09-26T00:05:46.908Z,6.00
2018-09-26T00:08:17.588Z,6.00
2018-09-26T00:10:49.689Z,5.90
2018-09-26T00:13:18.013Z,5.90
2018-09-26T00:15:49.145Z,5.90
2018-09-26T00:18:23.686Z,5.90
2018-09-26T00:20:58.268Z,5.90
2018-09-26T00:26:06.041Z,5.90
2018-09-26T00:28:34.336Z,5.90
2018-09-26T00:31:05.673Z,5.90
2018-09-26T00:33:36.055Z,5.90
2018-09-26T00:36:04.793Z,5.90
2018-09-26T00:38:37.920Z,5.90
2018-09-26T00:41:06.049Z,5.90
2018-09-26T00:43:38.249Z,5.90
2018-09-26T00:46:12.314Z,5.90
2018-09-26T00:48:40.520Z,6.00
2018-09-26T00:51:11.420Z,6.00
2018-09-26T00:53:39.805Z,6.00
2018-09-26T00:56:07.902Z,6.10
2018-09-26T00:58:40.915Z,6.10
2018-09-26T01:01:11.692Z,6.10
2018-09-26T01:03:46.938Z,6.10
2018-09-26T01:06:26.373Z,6.10
2018-09-26T01:08:58.536Z,6.10
2018-09-26T01:11:26.786Z,6.10
2018-09-26T01:13:55.212Z,6.10
2018-09-26T01:16:26.383Z,6.10
2018-09-26T01:19:08.249Z,6.10
2018-09-26T01:21:36.342Z,6.20
2018-09-26T01:24:10.631Z,6.10
2018-09-26T01:26:43.902Z,6.10
2018-09-26T01:29:12.079Z,6.20
2018-09-26T01:31:40.256Z,6.20
2018-09-26T01:34:12.340Z,6.20
2018-09-26T01:36:40.594Z,6.30
2018-09-26T01:39:09.366Z,6.30
2018-09-26T01:41:39.496Z,6.30
2018-09-26T01:44:07.596Z,6.30
2018-09-26T01:46:39.827Z,6.30
2018-09-26T01:49:10.375Z,6.30
2018-09-26T01:51:40.706Z,6.30
2018-09-26T01:54:08.849Z,6.30
2018-09-26T01:56:41.050Z,6.30
2018-09-26T01:59:19.305Z,6.30
2018-09-26T02:01:50.504Z,6.30
2018-09-26T02:04:18.600Z,6.30
2018-09-26T02:06:51.571Z,6.30
2018-09-26T02:09:19.888Z,6.30
2018-09-26T02:11:48.083Z,6.30
2018-09-26T02:14:22.477Z,6.20
2018-09-26T02:16:55.390Z,6.20
2018-09-26T02:19:23.714Z,6.10
2018-09-26T02:21:51.726Z,6.10
2018-09-26T02:24:23.945Z,6.00
2018-09-26T02:26:52.221Z,6.00
2018-09-26T02:29:20.330Z,5.90
2018-09-26T02:31:58.595Z,5.90
2018-09-26T02:34:38.272Z,5.90
2018-09-26T02:37:12.960Z,5.90
2018-09-26T02:39:41.141Z,5.90
2018-09-26T02:42:15.662Z,5.90
2018-09-26T02:44:46.399Z,5.80
2018-09-26T02:47:14.556Z,5.80
2018-09-26T02:49:49.042Z,5.80
2018-09-26T02:52:24.314Z,5.70
2018-09-26T02:55:04.118Z,5.70
2018-09-26T02:57:32.405Z,5.70
2018-09-26T03:00:05.764Z,5.60
2018-09-26T03:02:38.880Z,5.70
2018-09-26T03:05:09.930Z,5.70
2018-09-26T03:07:38.030Z,5.60
2018-09-26T03:10:10.217Z,5.60
2018-09-26T03:12:38.681Z,5.60
2018-09-26T03:15:06.958Z,5.60
2018-09-26T03:17:35.149Z,5.60
2018-09-26T03:20:09.346Z,5.60
2018-09-26T03:22:41.503Z,5.60
2018-09-26T03:25:09.663Z,5.60
2018-09-26T03:27:46.054Z,5.70
2018-09-26T03:30:18.705Z,5.60
2018-09-26T03:32:46.910Z,5.50
2018-09-26T03:35:19.962Z,5.50
2018-09-26T03:37:50.300Z,5.50
2018-09-26T03:40:18.625Z,5.50
2018-09-26T03:42:46.761Z,5.50
2018-09-26T03:45:26.554Z,5.50
2018-09-26T03:47:54.772Z,5.50
2018-09-26T03:50:34.509Z,5.50
2018-09-26T03:53:02.812Z,5.50
2018-09-26T03:55:35.270Z,5.50
2018-09-26T03:58:06.396Z,5.50
2018-09-26T04:00:40.753Z,5.60
2018-09-26T04:03:27.025Z,5.60
2018-09-26T04:08:40.096Z,5.60
2018-09-26T04:11:14.309Z,5.60
2018-09-26T04:13:48.634Z,5.50
2018-09-26T04:16:16.847Z,5.50
2018-09-26T04:18:44.943Z,5.50
2018-09-26T04:21:19.278Z,5.50
2018-09-26T04:23:52.599Z,5.50
2018-09-26T04:26:24.883Z,5.50
2018-09-26T04:28:53.233Z,5.50
2018-09-26T04:31:21.309Z,5.50
2018-09-26T04:33:57.592Z,5.50
2018-09-26T04:36:35.765Z,5.50
2018-09-26T04:39:07.739Z,5.50
2018-09-26T04:41:44.345Z,5.60
2018-09-26T04:44:16.690Z,5.60
2018-09-26T04:46:55.592Z,5.70
2018-09-26T04:49:33.194Z,5.80
2018-09-26T04:52:05.300Z,5.80
2018-09-26T04:54:33.430Z,5.90
2018-09-26T04:57:07.706Z,5.90
2018-09-26T04:59:42.049Z,6.00
2018-09-26T05:02:23.793Z,6.10
2018-09-26T05:04:56.171Z,6.10
2018-09-26T05:07:27.151Z,6.20
2018-09-26T05:09:58.533Z,6.30
2018-09-26T05:12:26.568Z,6.30
2018-09-26T05:15:00.763Z,6.40
2018-09-26T05:17:40.656Z,6.40
2018-09-26T05:20:08.764Z,6.50
2018-09-26T05:22:44.200Z,6.60
2018-09-26T05:25:17.557Z,6.60
2018-09-26T05:27:50.596Z,6.70
2018-09-26T05:30:18.695Z,6.70
2018-09-26T05:32:53.232Z,6.70
2018-09-26T05:35:27.651Z,6.80
2018-09-26T05:38:02.089Z,6.80
2018-09-26T05:40:34.210Z,6.90
2018-09-26T05:43:06.824Z,6.90
2018-09-26T05:45:38.952Z,7.00
2018-09-26T05:48:07.263Z,7.00
2018-09-26T05:50:35.304Z,7.10
2018-09-26T05:53:09.019Z,7.10
2018-09-26T05:55:43.505Z,7.20
2018-09-26T05:58:21.103Z,7.20
2018-09-26T06:00:49.327Z,7.20
2018-09-26T06:03:26.655Z,7.30
2018-09-26T06:06:01.003Z,7.30
2018-09-26T06:08:35.256Z,7.30
2018-09-26T06:11:07.515Z,7.40
2018-09-26T06:13:35.794Z,7.40
2018-09-26T06:16:03.894Z,7.50
2018-09-26T06:18:36.256Z,7.60
2018-09-26T06:21:06.403Z,7.70
2018-09-26T06:23:34.614Z,7.80
2018-09-26T06:26:05.527Z,7.90
2018-09-26T06:28:35.697Z,7.90
2018-09-26T06:31:03.843Z,8.00
2018-09-26T06:33:34.904Z,8.10
2018-09-26T06:36:03.449Z,8.20
2018-09-26T06:38:33.831Z,8.30
2018-09-26T06:41:02.049Z,8.40
2018-09-26T06:43:32.917Z,8.50
2018-09-26T06:46:00.973Z,8.50
2018-09-26T06:48:40.637Z,8.60
2018-09-26T06:51:08.706Z,8.70
2018-09-26T06:53:40.795Z,8.80
2018-09-26T06:56:09.309Z,8.80
2018-09-26T06:58:40.375Z,8.90
2018-09-26T07:01:11.335Z,9.00
2018-09-26T07:03:51.014Z,9.10
2018-09-26T07:06:21.812Z,9.20
2018-09-26T07:08:49.869Z,9.30
2018-09-26T07:11:22.941Z,9.40
2018-09-26T07:13:50.960Z,9.50
2018-09-26T07:16:21.884Z,9.60
2018-09-26T07:18:49.954Z,9.70
2018-09-26T07:21:30.539Z,9.80
2018-09-26T07:24:01.370Z,9.90
2018-09-26T07:26:29.522Z,9.90
2018-09-26T07:29:04.854Z,10.00
2018-09-26T07:31:37.381Z,10.20
2018-09-26T07:34:11.577Z,10.20
2018-09-26T07:36:44.716Z,10.30
2018-09-26T07:39:15.854Z,10.50
2018-09-26T07:41:43.971Z,10.60
2018-09-26T07:44:16.341Z,10.70
2018-09-26T07:46:52.867Z,10.80
2018-09-26T07:49:29.782Z,10.90
2018-09-26T07:51:57.870Z,11.00
2018-09-26T07:54:30.170Z,11.00
2018-09-26T07:57:02.412Z,11.10
2018-09-26T07:59:30.548Z,11.20
2018-09-26T08:01:58.973Z,11.30
2018-09-26T08:04:30.095Z,11.30
2018-09-26T08:07:10.922Z,11.40
2018-09-26T08:09:39.119Z,11.50
2018-09-26T08:12:13.676Z,11.60
2018-09-26T08:14:51.168Z,11.70
2018-09-26T08:17:23.495Z,11.80
2018-09-26T08:20:05.823Z,11.90
2018-09-26T08:22:36.854Z,12.00
2018-09-26T08:25:05.011Z,12.10
2018-09-26T08:27:37.258Z,12.20
2018-09-26T08:30:09.513Z,12.20
2018-09-26T08:32:38.100Z,12.30
2018-09-26T08:35:18.071Z,12.30
2018-09-26T08:37:46.178Z,12.30
2018-09-26T08:40:17.141Z,12.40
2018-09-26T08:42:45.365Z,12.50
2018-09-26T08:45:13.481Z,12.50
2018-09-26T08:47:47.860Z,12.50
2018-09-26T08:50:27.867Z,12.60
2018-09-26T08:52:56.007Z,12.60
2018-09-26T08:55:28.914Z,12.70
2018-09-26T08:57:57.465Z,12.70
2018-09-26T09:00:31.346Z,12.80
2018-09-26T09:03:04.774Z,13.00
2018-09-26T09:05:39.680Z,13.10
2018-09-26T09:08:07.770Z,13.30
2018-09-26T09:10:42.029Z,13.50
2018-09-26T09:13:14.075Z,13.50
2018-09-26T09:15:42.457Z,13.50
2018-09-26T09:18:10.529Z,13.60
2018-09-26T09:20:45.954Z,13.60
2018-09-26T09:23:20.490Z,13.70
2018-09-26T09:25:56.025Z,13.80
2018-09-26T09:28:34.284Z,13.80
2018-09-26T09:31:04.403Z,13.90
2018-09-26T09:33:32.502Z,14.00
2018-09-26T09:36:03.354Z,14.10
2018-09-26T09:38:31.655Z,14.40
2018-09-26T09:40:59.795Z,14.40
2018-09-26T09:43:32.070Z,14.50
2018-09-26T09:46:06.956Z,14.70
2018-09-26T09:48:35.186Z,14.90
2018-09-26T09:51:15.033Z,15.20
2018-09-26T09:53:43.205Z,15.40
2018-09-26T09:56:23.665Z,15.50
2018-09-26T09:58:51.784Z,15.50
2018-09-26T10:04:00.687Z,15.80
2018-09-26T10:06:31.928Z,15.90
2018-09-26T10:09:00.324Z,16.00
2018-09-26T10:11:29.221Z,16.10
2018-09-26T10:14:01.645Z,16.00
2018-09-26T10:16:32.607Z,16.10
2018-09-26T10:19:00.706Z,16.20
2018-09-26T10:21:37.166Z,16.30
2018-09-26T10:24:09.339Z,16.40
2018-09-26T10:26:39.410Z,16.40
2018-09-26T10:29:07.818Z,16.40
2018-09-26T10:31:38.723Z,16.40
2018-09-26T10:34:06.819Z,16.30
2018-09-26T10:36:44.456Z,16.30
2018-09-26T10:39:12.587Z,16.30
2018-09-26T10:41:43.540Z,16.30
2018-09-26T10:44:11.707Z,16.30
2018-09-26T10:46:42.617Z,16.30
2018-09-26T10:49:12.921Z,16.30
2018-09-26T10:51:41.048Z,16.40
2018-09-26T10:54:12.076Z,16.40
2018-09-26T10:56:43.126Z,16.40
2018-09-26T10:59:15.577Z,16.30
2018-09-26T11:01:46.260Z,16.50
2018-09-26T11:04:14.390Z,16.50
2018-09-26T11:06:48.630Z,16.60
2018-09-26T11:09:19.729Z,16.60
2018-09-26T11:11:47.861Z,16.60
2018-09-26T11:14:22.489Z,16.60
2018-09-26T11:16:53.326Z,16.70
2018-09-26T11:19:21.661Z,16.70
2018-09-26T11:21:49.731Z,16.70
2018-09-26T11:24:25.184Z,16.80
2018-09-26T11:26:58.074Z,16.90
2018-09-26T11:29:26.143Z,17.10
2018-09-26T11:31:57.185Z,17.20
2018-09-26T11:34:25.377Z,17.30
2018-09-26T11:36:53.408Z,17.30
2018-09-26T11:39:26.843Z,17.30
2018-09-26T11:41:57.841Z,17.50
2018-09-26T11:44:26.091Z,17.60
2018-09-26T11:46:57.367Z,17.70
2018-09-26T11:49:28.247Z,17.80
2018-09-26T11:51:56.301Z,17.80
2018-09-26T11:54:29.830Z,17.90
2018-09-26T11:57:00.716Z,17.90
2018-09-26T11:59:28.799Z,17.90
2018-09-26T12:02:04.718Z,17.90
2018-09-26T12:04:32.904Z,17.90
2018-09-26T12:07:07.390Z,17.90
2018-09-26T12:09:35.990Z,17.80
2018-09-26T12:12:04.144Z,17.70
2018-09-26T12:14:35.063Z,17.70
2018-09-26T12:17:03.179Z,17.70
2018-09-26T12:19:36.520Z,17.80
2018-09-26T12:22:16.411Z,17.80
2018-09-26T12:24:44.514Z,17.90
2018-09-26T12:27:19.070Z,17.90
2018-09-26T12:29:47.110Z,17.80
2018-09-26T12:32:15.404Z,17.80
2018-09-26T12:34:43.581Z,17.80
2018-09-26T12:37:11.854Z,17.90
2018-09-26T12:39:43.093Z,17.90
2018-09-26T12:42:11.331Z,18.00
2018-09-26T12:44:39.406Z,18.00
2018-09-26T12:47:13.830Z,17.90
2018-09-26T12:49:46.804Z,18.00
2018-09-26T12:52:14.882Z,18.00
2018-09-26T12:54:49.503Z,18.10
2018-09-26T12:57:20.339Z,18.10
2018-09-26T12:59:48.661Z,18.10
2018-09-26T13:02:24.022Z,18.10
2018-09-26T13:04:56.413Z,18.20
2018-09-26T13:07:29.484Z,18.20
2018-09-26T13:10:02.762Z,18.10
2018-09-26T13:12:33.892Z,18.10
2018-09-26T13:15:02.145Z,18.20
2018-09-26T13:17:33.076Z,18.20
2018-09-26T13:20:01.399Z,18.20
2018-09-26T13:22:29.596Z,18.30
2018-09-26T13:25:03.940Z,18.40
2018-09-26T13:27:38.176Z,18.40
2018-09-26T13:30:06.584Z,18.40
2018-09-26T13:32:36.751Z,18.40
2018-09-26T13:35:05.243Z,18.40
2018-09-26T13:37:33.317Z,18.50
2018-09-26T13:40:13.095Z,18.50
2018-09-26T13:42:41.138Z,18.50
2018-09-26T13:45:25.978Z,18.40
2018-09-26T13:47:54.076Z,18.30
2018-09-26T13:50:24.967Z,18.30
2018-09-26T13:52:52.980Z,18.40
2018-09-26T13:55:26.084Z,18.40
2018-09-26T13:57:54.183Z,18.30
2018-09-26T14:00:28.730Z,18.20
2018-09-26T14:03:01.057Z,18.10
2018-09-26T14:05:32.127Z,18.00
2018-09-26T14:08:03.086Z,17.90
2018-09-26T14:10:34.434Z,17.90
2018-09-26T14:13:05.506Z,17.90
2018-09-26T14:15:33.485Z,18.00
2018-09-26T14:18:16.952Z,17.90
2018-09-26T14:20:49.054Z,17.80
2018-09-26T14:23:20.140Z,17.80
2018-09-26T14:25:48.226Z,17.80
2018-09-26T14:28:21.337Z,17.90
2018-09-26T14:31:02.159Z,17.90
2018-09-26T14:33:35.070Z,17.90
2018-09-26T14:36:03.101Z,17.80
2018-09-26T14:38:42.780Z,17.80
2018-09-26T14:41:11.067Z,17.70
2018-09-26T14:43:43.423Z,17.70
2018-09-26T14:46:17.855Z,17.70
2018-09-26T14:48:52.390Z,17.60
2018-09-26T14:51:22.502Z,17.60
2018-09-26T14:53:53.531Z,17.50
2018-09-26T14:56:21.760Z,17.50
2018-09-26T14:58:55.019Z,17.50
2018-09-26T15:01:28.011Z,17.50
2018-09-26T15:03:56.028Z,17.40
2018-09-26T15:06:29.224Z,17.40
2018-09-26T15:08:59.338Z,17.30
2018-09-26T15:11:27.419Z,17.30
2018-09-26T15:13:55.663Z,17.20
2018-09-26T15:16:29.650Z,17.10
2018-09-26T15:19:01.980Z,17.10
2018-09-26T15:21:34.893Z,17.00
2018-09-26T15:24:02.883Z,17.00
2018-09-26T15:26:38.262Z,16.90
2018-09-26T15:29:07.127Z,16.90
2018-09-26T15:31:35.285Z,16.90
2018-09-26T15:34:04.095Z,16.90
2018-09-26T15:36:32.181Z,16.90
2018-09-26T15:39:07.483Z,16.90
2018-09-26T15:41:41.030Z,16.90
2018-09-26T15:44:12.221Z,16.90
2018-09-26T15:46:40.636Z,16.90
2018-09-26T15:49:09.256Z,16.90
2018-09-26T15:51:37.487Z,16.90
2018-09-26T15:54:05.597Z,16.90
2018-09-26T15:56:36.439Z,16.80
2018-09-26T15:59:04.611Z,16.80
2018-09-26T16:01:35.742Z,16.80
2018-09-26T16:04:04.022Z,16.80
2018-09-26T16:06:32.073Z,16.60
2018-09-26T16:09:06.644Z,16.70
2018-09-26T16:11:37.443Z,16.70
2018-09-26T16:14:05.508Z,16.60
2018-09-26T16:16:37.843Z,16.60
2018-09-26T16:19:11.184Z,16.50
2018-09-26T16:21:39.170Z,16.50
2018-09-26T16:24:11.527Z,16.40
2018-09-26T16:26:44.549Z,16.30
2018-09-26T16:29:12.730Z,16.30
2018-09-26T16:31:40.854Z,16.10
2018-09-26T16:34:11.691Z,16.20
2018-09-26T16:36:39.790Z,16.10
2018-09-26T16:39:14.768Z,16.10
2018-09-26T16:41:45.958Z,16.00
2018-09-26T16:44:26.654Z,16.00
2018-09-26T16:47:07.856Z,15.90
2018-09-26T16:49:36.076Z,15.90
2018-09-26T16:52:13.895Z,15.80
2018-09-26T16:54:41.912Z,15.80
2018-09-26T16:57:22.297Z,15.70
2018-09-26T16:59:55.398Z,15.70
2018-09-26T17:02:23.737Z,15.70
2018-09-26T17:04:52.001Z,15.60
2018-09-26T17:07:22.057Z,15.60
2018-09-26T17:09:53.892Z,15.60
2018-09-26T17:12:28.233Z,15.60
2018-09-26T17:15:01.221Z,15.50
2018-09-26T17:17:29.446Z,15.40
2018-09-26T17:19:57.672Z,15.40
2018-09-26T17:22:30.708Z,15.30
2018-09-26T17:25:06.129Z,15.20
2018-09-26T17:27:34.262Z,15.20
2018-09-26T17:30:05.176Z,15.10
2018-09-26T17:32:36.183Z,15.10
2018-09-26T17:35:05.056Z,15.10
2018-09-26T17:37:33.241Z,15.10
2018-09-26T17:40:04.800Z,15.10
2018-09-26T17:42:32.812Z,15.10
2018-09-26T17:45:06.783Z,15.20
2018-09-26T17:47:34.791Z,15.20
2018-09-26T17:50:07.641Z,15.20
2018-09-26T17:52:35.846Z,15.10
2018-09-26T17:55:06.665Z,15.20
2018-09-26T17:57:34.770Z,15.20
2018-09-26T18:00:05.799Z,15.30
2018-09-26T18:02:33.909Z,15.30
2018-09-26T18:05:07.157Z,15.30
2018-09-26T18:07:47.092Z,15.30
2018-09-26T18:10:15.185Z,15.30
2018-09-26T18:12:48.281Z,15.30
2018-09-26T18:15:19.195Z,15.30
2018-09-26T18:17:53.747Z,15.30
2018-09-26T18:20:27.099Z,15.40
2018-09-26T18:23:00.014Z,15.40
2018-09-26T18:25:28.097Z,15.40
2018-09-26T18:28:02.496Z,15.40
2018-09-26T18:30:40.881Z,15.40
2018-09-26T18:33:13.847Z,15.40
2018-09-26T18:35:42.108Z,15.40
2018-09-26T18:38:10.145Z,15.40
2018-09-26T18:40:40.319Z,15.40
2018-09-26T18:43:10.442Z,15.40
2018-09-26T18:45:43.486Z,15.50
2018-09-26T18:48:19.412Z,15.50
2018-09-26T18:50:47.650Z,15.40
2018-09-26T18:53:22.119Z,15.40
2018-09-26T18:55:56.272Z,15.40
2018-09-26T18:58:26.514Z,15.40
2018-09-26T19:00:54.952Z,15.40
2018-09-26T19:03:23.031Z,15.40
2018-09-26T19:05:57.650Z,15.40
2018-09-26T19:08:32.999Z,15.40
2018-09-26T19:11:07.410Z,15.40
2018-09-26T19:16:15.431Z,15.40
2018-09-26T19:18:43.659Z,15.40
2018-09-26T19:21:15.097Z,15.40
2018-09-26T19:23:50.703Z,15.40
2018-09-26T19:26:31.374Z,15.30
2018-09-26T19:28:59.518Z,15.30
2018-09-26T19:31:37.047Z,15.30
2018-09-26T19:34:07.875Z,15.30
2018-09-26T19:36:36.037Z,15.20
2018-09-26T19:39:07.641Z,15.20
2018-09-26T19:41:35.765Z,15.20
2018-09-26T19:44:12.073Z,15.10
2018-09-26T19:46:42.336Z,15.10
2018-09-26T19:49:12.718Z,15.10
2018-09-26T19:51:40.811Z,15.10
2018-09-26T19:54:15.430Z,15.10
2018-09-26T19:56:43.763Z,15.10
2018-09-26T19:59:18.483Z,15.00
2018-09-26T20:01:46.626Z,15.00
2018-09-26T20:04:17.730Z,15.10
2018-09-26T20:06:48.817Z,15.00
2018-09-26T20:09:17.120Z,15.10
2018-09-26T20:11:56.861Z,15.10
2018-09-26T20:14:24.940Z,15.10
2018-09-26T20:17:04.604Z,15.10
2018-09-26T20:19:32.640Z,15.10
2018-09-26T20:22:12.657Z,15.10
2018-09-26T20:24:40.739Z,15.10
2018-09-26T20:27:16.663Z,15.10
2018-09-26T20:29:44.844Z,15.10
2018-09-26T20:32:19.281Z,15.00
2018-09-26T20:34:52.324Z,15.00
2018-09-26T20:37:22.528Z,15.00
2018-09-26T20:39:50.621Z,15.00
2018-09-26T20:42:30.193Z,15.10
2018-09-26T20:44:58.333Z,15.10
2018-09-26T20:47:33.858Z,15.10
2018-09-26T20:50:07.257Z,15.10
2018-09-26T20:52:47.306Z,15.10
2018-09-26T20:55:18.353Z,15.10
2018-09-26T20:57:51.665Z,15.00
2018-09-26T21:00:26.326Z,15.00
2018-09-26T21:02:54.366Z,15.00
2018-09-26T21:05:25.406Z,14.80
2018-09-26T21:07:53.452Z,14.80
2018-09-26T21:10:24.692Z,14.70
2018-09-26T21:12:54.719Z,14.70
2018-09-26T21:15:22.773Z,14.60
2018-09-26T21:17:56.079Z,14.60
2018-09-26T21:20:27.116Z,14.50
2018-09-26T21:22:58.006Z,14.40
2018-09-26T21:25:26.217Z,14.40
2018-09-26T21:27:54.289Z,14.40
2018-09-26T21:30:27.451Z,14.30
2018-09-26T21:32:57.950Z,14.40
2018-09-26T21:35:26.177Z,14.40
2018-09-26T21:37:54.264Z,14.40
2018-09-26T21:40:32.376Z,14.40
2018-09-26T21:43:02.802Z,14.40
2018-09-26T21:45:31.139Z,14.40
2018-09-26T21:47:59.227Z,14.40
2018-09-26T21:50:34.715Z,14.50
2018-09-26T21:53:10.955Z,14.50
2018-09-26T21:55:41.791Z,14.50
2018-09-26T21:58:09.986Z,14.50
2018-09-26T22:00:47.869Z,14.50
2018-09-26T22:03:15.946Z,14.50
2018-09-26T22:05:46.994Z,14.50
2018-09-26T22:08:15.255Z,14.50
2018-09-26T22:10:43.374Z,14.40
2018-09-26T22:13:14.168Z,14.50
2018-09-26T22:15:42.249Z,14.50
2018-09-26T22:18:14.466Z,14.50
2018-09-26T22:20:44.775Z,14.50
2018-09-26T22:23:13.183Z,14.50
2018-09-26T22:25:41.248Z,14.40
2018-09-26T22:28:13.757Z,14.50
2018-09-26T22:30:55.639Z,14.40
2018-09-26T22:33:23.733Z,14.50
2018-09-26T22:36:03.640Z,14.40
2018-09-26T22:38:31.816Z,14.40
2018-09-26T22:41:04.104Z,14.40
2018-09-26T22:43:45.854Z,14.40
2018-09-26T22:46:14.003Z,14.40
2018-09-26T22:48:46.968Z,14.40
2018-09-26T22:51:15.207Z,14.40
2018-09-26T22:53:43.405Z,14.40
2018-09-26T22:56:14.444Z,14.40
2018-09-26T22:58:42.721Z,14.40
2018-09-26T23:01:10.781Z,14.40
2018-09-26T23:03:51.041Z,14.40
2018-09-26T23:06:29.051Z,14.40
2018-09-26T23:08:57.106Z,14.50
2018-09-26T23:11:31.678Z,14.40
2018-09-26T23:14:09.138Z,14.40
2018-09-26T23:16:43.546Z,14.40
2018-09-26T23:19:17.847Z,14.40
2018-09-26T23:21:48.816Z,14.40
2018-09-26T23:24:16.885Z,14.40
2018-09-26T23:26:52.330Z,14.40
2018-09-26T23:29:23.358Z,14.40
2018-09-26T23:31:53.516Z,14.40
2018-09-26T23:34:21.625Z,14.40
2018-09-26T23:37:04.240Z,14.40
2018-09-26T23:39:41.974Z,14.40
2018-09-26T23:42:10.047Z,14.40
2018-09-26T23:44:41.019Z,14.30
2018-09-26T23:47:09.027Z,14.30
2018-09-26T23:49:40.133Z,14.30
2018-09-26T23:52:11.114Z,14.30
2018-09-26T23:54:48.770Z,14.30
2018-09-26T23:57:16.803Z,14.30
2018-09-26T23:59:49.936Z,14.30
